EKSP

Vojens Skrydstrup Airport

Vojens, Denmark
METAR EKSP 181520Z 34007KT 5000 BR SCT003 BKN006 01/00 Q0991 R28R/5903//
Observed Flight Rules
Jan-18 @ 15:20 UTC (21 minutes ago) Instrument Flight Rules
Wind Visibility Clouds Conditions
340° at 7 knots 5,005 meters
  • Scattered at 300' AGL
  • Broken at 600' AGL
  • Mist
Temperatures Readings
Current 1°C / 34°F
Dewpoint 0°C / 32°F
Humidity 93%
Altimeter 29.26" Hg
Pressure 991 hPa
Elevation 40
METAR EKSP 181520Z 34007KT 5000 BR SCT003 BKN006 01/00 Q0991 R28R/5903//
Observed Flight Rules
Jan-18 @ 15:20 UTC
(21 minutes ago)
IFR
Wind Visibility
340° at 7 knots 5,005 meters
Clouds
  • Scattered at 300' AGL
  • Broken at 600' AGL
Conditions
  • Mist
Temperature Dewpoint
1°C / 34°F 0°C / 32°F
Humidity Altimeter Pressure
93% 29.26" Hg 991 hPa